createdAt,value
2022-08-12T00:11:24.794Z,55.06
2022-08-12T00:41:27.568Z,56.91
2022-08-12T01:11:30.807Z,58.36
2022-08-12T01:41:33.508Z,59.15
2022-08-12T02:11:36.924Z,58.02
2022-08-12T02:41:39.611Z,69.45
2022-08-12T03:11:42.908Z,59.42
2022-08-12T03:41:52.380Z,66.75
2022-08-12T04:11:55.785Z,54.77
2022-08-12T04:41:58.951Z,59.07
2022-08-12T05:12:02.186Z,59.92
2022-08-12T05:42:05.198Z,57.60
2022-08-12T06:12:08.448Z,56.02
2022-08-12T06:42:31.883Z,60.10
2022-08-12T07:12:35.057Z,62.92
2022-08-12T07:42:37.741Z,60.01
2022-08-12T08:12:41.465Z,58.90
2022-08-12T08:42:49.441Z,52.31
2022-08-12T09:43:18.942Z,45.51
2022-08-12T10:13:34.571Z,43.38
2022-08-12T10:43:56.541Z,42.06
2022-08-12T11:14:01.199Z,40.43
2022-08-12T11:44:24.094Z,41.80
2022-08-12T12:14:38.018Z,40.14
2022-08-12T12:44:51.123Z,39.58
2022-08-12T13:14:58.099Z,40.12
2022-08-12T13:45:03.052Z,39.49
2022-08-12T14:15:08.975Z,40.35
2022-08-12T14:45:12.624Z,40.91
2022-08-12T15:15:16.288Z,40.12
2022-08-12T15:45:21.203Z,41.15
2022-08-12T16:15:26.813Z,41.51
2022-08-12T16:46:23.533Z,42.51
2022-08-12T17:16:05.080Z,43.94
2022-08-12T17:46:12.804Z,44.69
2022-08-12T18:16:23.261Z,46.71
2022-08-12T18:46:29.315Z,49.02
2022-08-12T19:16:34.037Z,51.56
2022-08-12T19:46:37.687Z,53.44
2022-08-12T20:16:51.022Z,54.68
2022-08-12T20:46:58.292Z,56.53
2022-08-12T21:17:03.078Z,57.38
2022-08-12T21:47:06.307Z,58.97
2022-08-12T22:17:23.806Z,57.39
2022-08-12T22:47:53.349Z,60.31
2022-08-12T23:17:51.028Z,58.09
2022-08-12T23:47:55.441Z,54.16
